Time;durP1;ratioP1;P1;durP2;ratioP2;P2;SDS_P1;SDS_P2;PMS_P1;PMS_P2;Temp;Humidity;BMP_temperature;BMP_pressure;BME280_temperature;BME280_humidity;BME280_pressure;Samples;Min_cycle;Max_cycle;Signal;HPM_P1;HPM_P2
2024/01/20 00:01:09;;;;;;;0.40;0.40;;;-2.10;99.90;;;;;;5074643;28;20949;-80
2024/01/20 00:03:36;;;;;;;1.10;0.93;;;-2.00;99.90;;;;;;5074843;28;20455;-80
2024/01/20 00:06:03;;;;;;;1.70;1.60;;;-2.00;99.90;;;;;;5074861;28;20452;-80
2024/01/20 00:08:30;;;;;;;0.77;0.73;;;-1.90;99.90;;;;;;5074454;28;20483;-80
2024/01/20 00:10:57;;;;;;;0.30;0.30;;;-1.80;99.90;;;;;;5074327;28;20933;-80
2024/01/20 00:13:24;;;;;;;0.50;0.50;;;-1.80;99.90;;;;;;5075300;28;20437;-80
2024/01/20 00:15:50;;;;;;;2.43;1.97;;;-1.70;99.90;;;;;;5074247;28;20483;-80
2024/01/20 00:18:18;;;;;;;3.70;1.30;;;-1.70;99.90;;;;;;5074573;28;20426;-80
2024/01/20 00:20:45;;;;;;;1.83;0.70;;;-1.60;99.90;;;;;;5074698;28;20440;-80
2024/01/20 00:23:12;;;;;;;6.73;1.47;;;-1.70;99.90;;;;;;5074624;28;20540;-80
2024/01/20 00:25:40;;;;;;;1.70;1.20;;;-1.60;99.90;;;;;;5074779;28;20456;-80
2024/01/20 00:28:07;;;;;;;0.97;0.97;;;-1.60;99.90;;;;;;5074251;28;20445;-79
2024/01/20 00:30:34;;;;;;;6.17;4.00;;;-1.60;99.90;;;;;;5074766;28;20472;-80
2024/01/20 00:33:01;;;;;;;0.97;0.90;;;-1.60;99.90;;;;;;5074977;28;20447;-80
2024/01/20 00:35:29;;;;;;;1.50;0.60;;;-1.60;99.90;;;;;;5074203;28;21013;-80
2024/01/20 00:37:56;;;;;;;1.30;0.83;;;-1.60;99.90;;;;;;5074488;28;20445;-79
2024/01/20 00:40:23;;;;;;;3.80;1.83;;;-1.70;99.90;;;;;;5074299;28;20464;-80
2024/01/20 00:42:50;;;;;;;1.90;1.50;;;-1.80;99.90;;;;;;5076259;28;20433;-80
2024/01/20 00:45:16;;;;;;;2.93;2.03;;;-1.80;99.90;;;;;;5078237;28;20444;-80
2024/01/20 00:47:45;;;;;;;12.13;2.57;;;-1.80;99.90;;;;;;5078349;28;20448;-80
2024/01/20 00:50:11;;;;;;;2.00;1.80;;;-1.90;99.90;;;;;;5077803;28;20465;-80
2024/01/20 00:52:40;;;;;;;1.87;1.77;;;-1.90;99.90;;;;;;5077933;28;20933;-80
2024/01/20 00:55:07;;;;;;;2.13;1.20;;;-1.90;99.90;;;;;;5078211;28;20449;-80
2024/01/20 00:57:34;;;;;;;8.23;1.47;;;-1.90;99.90;;;;;;5078935;28;20811;-80
2024/01/20 01:00:01;;;;;;;3.70;1.60;;;-1.90;99.90;;;;;;5079357;28;20457;-80
2024/01/20 01:02:27;;;;;;;3.23;1.53;;;-1.90;99.90;;;;;;5080020;28;20452;-80
2024/01/20 01:04:54;;;;;;;4.10;1.07;;;-1.90;99.90;;;;;;5079265;28;20444;-80
2024/01/20 01:07:21;;;;;;;5.13;1.53;;;-1.90;99.90;;;;;;5078771;28;20440;-80
2024/01/20 01:09:49;;;;;;;3.90;1.53;;;-1.90;99.90;;;;;;5078599;28;20465;-80
2024/01/20 01:12:16;;;;;;;1.63;1.53;;;-1.90;99.90;;;;;;5078941;28;20453;-80
2024/01/20 01:14:43;;;;;;;1.17;1.07;;;-1.90;99.90;;;;;;5078696;28;20453;-80
2024/01/20 01:17:09;;;;;;;2.40;2.20;;;-1.90;99.90;;;;;;5078292;28;20568;-80
2024/01/20 01:19:36;;;;;;;3.07;1.30;;;-1.90;99.90;;;;;;5078473;28;20460;-80
2024/01/20 01:22:03;;;;;;;1.40;0.93;;;-1.90;99.90;;;;;;5078372;28;20471;-80
2024/01/20 01:24:30;;;;;;;5.43;2.03;;;-2.20;99.90;;;;;;5078230;28;20453;-80
2024/01/20 01:26:58;;;;;;;1.43;0.60;;;-2.20;99.90;;;;;;5078105;28;20440;-80
2024/01/20 01:29:25;;;;;;;3.63;1.73;;;-2.20;99.90;;;;;;5077960;28;20456;-80
2024/01/20 01:31:51;;;;;;;5.57;1.80;;;-2.20;99.90;;;;;;5077940;28;20441;-80
2024/01/20 01:34:18;;;;;;;3.10;1.30;;;-2.20;99.90;;;;;;5077531;28;20452;-80
2024/01/20 01:36:45;;;;;;;3.37;1.23;;;-2.20;99.90;;;;;;5077696;28;20484;-80
2024/01/20 01:39:12;;;;;;;1.10;0.53;;;-2.10;99.90;;;;;;5077971;28;20842;-80
2024/01/20 01:41:38;;;;;;;1.37;1.27;;;-2.10;99.90;;;;;;5077750;28;20445;-80
2024/01/20 01:44:07;;;;;;;1.50;0.93;;;-2.10;99.90;;;;;;5077763;28;20455;-80
2024/01/20 01:46:33;;;;;;;0.60;0.50;;;-2.10;99.90;;;;;;5077389;28;20437;-80
2024/01/20 01:49:00;;;;;;;0.97;0.77;;;-2.00;99.90;;;;;;5077824;28;20477;-80
2024/01/20 01:51:28;;;;;;;5.00;1.60;;;-2.00;99.90;;;;;;5077447;28;20815;-80
2024/01/20 01:53:55;;;;;;;2.00;1.33;;;-2.00;99.90;;;;;;5076873;28;20424;-80
2024/01/20 01:56:21;;;;;;;0.93;0.83;;;-1.90;99.90;;;;;;5076960;28;20477;-80
2024/01/20 01:58:48;;;;;;;3.27;2.33;;;-2.00;99.90;;;;;;5077217;28;20436;-80
2024/01/20 02:01:16;;;;;;;1.67;1.10;;;-2.00;99.90;;;;;;5076795;28;20437;-80
2024/01/20 02:03:43;;;;;;;0.70;0.70;;;-2.10;99.90;;;;;;5077132;28;20445;-80
2024/01/20 02:06:10;;;;;;;2.17;1.90;;;-2.10;99.90;;;;;;5077312;28;20505;-80
2024/01/20 02:08:40;;;;;;;1.37;1.27;;;-2.20;99.90;;;;;;5076434;28;20862;-80
2024/01/20 02:11:07;;;;;;;0.97;0.50;;;-2.40;99.90;;;;;;5076698;28;20429;-80
2024/01/20 02:13:35;;;;;;;2.77;0.63;;;-2.60;99.90;;;;;;5077331;28;20462;-80
2024/01/20 02:16:02;;;;;;;0.83;0.83;;;-2.70;99.90;;;;;;5078511;28;20480;-80
2024/01/20 02:18:31;;;;;;;2.23;1.20;;;-2.80;99.90;;;;;;5076130;28;21004;-80
2024/01/20 02:20:57;;;;;;;0.67;0.67;;;-2.80;99.90;;;;;;5076979;28;20452;-80
2024/01/20 02:23:25;;;;;;;1.43;0.97;;;-2.90;99.90;;;;;;5076452;28;20408;-80
2024/01/20 02:25:53;;;;;;;3.27;0.93;;;-2.80;99.90;;;;;;5076289;28;20981;-80
2024/01/20 02:28:20;;;;;;;2.40;0.90;;;-2.90;99.90;;;;;;5076361;28;20452;-80
2024/01/20 02:30:47;;;;;;;1.60;0.97;;;-2.90;99.90;;;;;;5076630;28;20444;-80
2024/01/20 02:33:14;;;;;;;3.50;0.93;;;-2.80;99.90;;;;;;5076913;28;20815;-80
2024/01/20 02:35:40;;;;;;;1.13;1.13;;;-2.80;99.90;;;;;;5076527;28;20441;-80
2024/01/20 02:38:07;;;;;;;1.27;1.27;;;-2.70;99.90;;;;;;5076427;28;20444;-80
2024/01/20 02:40:35;;;;;;;2.20;1.83;;;-2.60;99.90;;;;;;5076418;28;20444;-80
2024/01/20 02:43:02;;;;;;;0.70;0.60;;;-2.50;99.90;;;;;;5076395;28;20452;-80
2024/01/20 02:45:28;;;;;;;1.13;0.97;;;-2.60;99.90;;;;;;5076233;28;20807;-80
2024/01/20 02:47:55;;;;;;;2.33;0.73;;;-2.50;99.90;;;;;;5076469;28;20449;-80
2024/01/20 02:50:22;;;;;;;4.00;1.27;;;-2.50;99.90;;;;;;5075905;28;20476;-80
2024/01/20 02:52:49;;;;;;;3.23;1.17;;;-2.60;99.90;;;;;;5075823;28;20453;-80
2024/01/20 02:55:16;;;;;;;1.00;0.60;;;-2.60;99.90;;;;;;5076256;28;20452;-80
2024/01/20 02:57:44;;;;;;;1.53;0.73;;;-2.60;99.90;;;;;;5075412;28;20481;-80
2024/01/20 03:00:11;;;;;;;0.80;0.80;;;-2.60;99.90;;;;;;5076087;28;20468;-80
2024/01/20 03:02:38;;;;;;;0.93;0.80;;;-2.60;99.90;;;;;;5075963;28;20424;-80
2024/01/20 03:05:05;;;;;;;5.60;1.60;;;-2.60;99.90;;;;;;5075210;28;20437;-80
2024/01/20 03:07:32;;;;;;;2.10;2.00;;;-2.50;99.90;;;;;;5077741;28;20842;-80
2024/01/20 03:09:59;;;;;;;1.97;1.77;;;-2.50;99.90;;;;;;5076620;28;20435;-80
2024/01/20 03:12:25;;;;;;;2.80;1.70;;;-2.50;99.90;;;;;;5077547;28;20452;-80
2024/01/20 03:14:54;;;;;;;0.50;0.50;;;-2.40;99.90;;;;;;5077136;28;20956;-80
2024/01/20 03:17:20;;;;;;;1.57;1.50;;;-2.30;99.90;;;;;;5076724;28;20480;-80
2024/01/20 03:19:47;;;;;;;1.57;1.03;;;-2.30;99.90;;;;;;5076961;28;20540;-80
2024/01/20 03:22:14;;;;;;;4.00;0.97;;;-2.40;99.90;;;;;;5077110;28;20424;-80
2024/01/20 03:24:41;;;;;;;3.13;2.70;;;-2.50;99.90;;;;;;5076598;28;20452;-80
2024/01/20 03:27:09;;;;;;;0.97;0.97;;;-2.50;99.90;;;;;;5077236;28;20441;-80
2024/01/20 03:29:36;;;;;;;2.30;1.63;;;-2.50;99.90;;;;;;5076243;28;20917;-80
2024/01/20 03:32:04;;;;;;;2.47;1.37;;;-2.50;99.90;;;;;;5076591;28;20456;-80
2024/01/20 03:34:31;;;;;;;4.43;1.20;;;-2.50;99.90;;;;;;5077648;28;20445;-80
2024/01/20 03:36:57;;;;;;;1.50;1.43;;;-2.50;99.90;;;;;;5076354;28;20480;-80
2024/01/20 03:39:24;;;;;;;1.47;1.37;;;-2.50;99.90;;;;;;5076010;28;20832;-80
2024/01/20 03:41:51;;;;;;;2.13;1.60;;;-2.60;99.90;;;;;;5076135;28;20509;-80
2024/01/20 03:44:17;;;;;;;0.40;0.40;;;-2.60;99.90;;;;;;5075971;28;20437;-80
2024/01/20 03:46:44;;;;;;;1.53;1.33;;;-2.60;99.90;;;;;;5075967;28;20444;-80
2024/01/20 03:49:12;;;;;;;1.57;1.47;;;-2.50;99.90;;;;;;5075897;28;20444;-80
2024/01/20 03:51:39;;;;;;;2.20;1.27;;;-2.40;99.90;;;;;;5075729;28;20449;-80
2024/01/20 03:54:06;;;;;;;1.67;1.30;;;-2.40;99.90;;;;;;5075643;28;20791;-80
2024/01/20 03:56:32;;;;;;;0.40;0.40;;;-2.30;99.90;;;;;;5075682;28;20480;-80
2024/01/20 03:58:59;;;;;;;1.77;1.63;;;-2.30;99.90;;;;;;5076510;28;20457;-80
2024/01/20 04:01:26;;;;;;;1.10;0.97;;;-2.30;99.90;;;;;;5075740;28;20426;-80
2024/01/20 04:03:53;;;;;;;4.77;1.77;;;-2.20;99.90;;;;;;5075630;28;20423;-80
2024/01/20 04:06:21;;;;;;;5.30;2.27;;;-2.20;99.90;;;;;;5075623;28;20452;-80
2024/01/20 04:08:48;;;;;;;0.93;0.93;;;-2.10;99.90;;;;;;5074860;28;20476;-80
2024/01/20 04:11:15;;;;;;;0.80;0.80;;;-2.10;99.90;;;;;;5075323;28;20488;-80
2024/01/20 04:13:41;;;;;;;2.43;0.90;;;-2.20;99.90;;;;;;5075643;28;20461;-80
2024/01/20 04:16:08;;;;;;;2.37;0.90;;;-2.20;99.90;;;;;;5075523;28;20942;-80
2024/01/20 04:18:35;;;;;;;1.23;0.60;;;-2.20;99.90;;;;;;5079221;28;20464;-80
2024/01/20 04:21:02;;;;;;;0.70;0.67;;;-2.30;99.90;;;;;;5079010;28;20448;-80
2024/01/20 04:23:30;;;;;;;1.73;1.50;;;-2.30;99.90;;;;;;5079344;28;20477;-80
2024/01/20 04:25:57;;;;;;;0.80;0.77;;;-2.30;99.90;;;;;;5079498;28;20437;-80
2024/01/20 04:28:24;;;;;;;1.03;0.80;;;-2.20;99.90;;;;;;5078875;28;20823;-80
2024/01/20 04:30:51;;;;;;;1.53;1.17;;;-2.10;99.90;;;;;;5078530;28;20933;-80
2024/01/20 04:33:17;;;;;;;2.00;0.77;;;-2.20;99.90;;;;;;5078797;28;20494;-80
2024/01/20 04:35:44;;;;;;;0.40;0.40;;;-2.30;99.90;;;;;;5078796;28;20440;-80
2024/01/20 04:38:11;;;;;;;0.50;0.50;;;-2.30;99.90;;;;;;5078641;28;20871;-80
2024/01/20 04:40:39;;;;;;;9.97;4.00;;;-2.30;99.90;;;;;;5078852;28;20445;-80
2024/01/20 04:43:06;;;;;;;1.37;1.33;;;-2.20;99.90;;;;;;5078507;28;20542;-80
2024/01/20 04:45:32;;;;;;;2.23;1.17;;;-2.20;99.90;;;;;;5078646;28;20426;-80
2024/01/20 04:47:59;;;;;;;2.50;2.30;;;-2.20;99.90;;;;;;5078329;28;20447;-80
2024/01/20 04:50:26;;;;;;;0.93;0.90;;;-2.20;99.90;;;;;;5078366;28;20463;-80
2024/01/20 04:52:54;;;;;;;1.63;1.33;;;-2.20;99.90;;;;;;5078712;28;20823;-80
2024/01/20 04:55:21;;;;;;;2.40;2.00;;;-2.20;99.90;;;;;;5078484;28;20455;-80
2024/01/20 04:57:49;;;;;;;6.10;0.90;;;-2.30;99.90;;;;;;5078056;28;20487;-80
2024/01/20 05:00:16;;;;;;;0.77;0.50;;;-2.30;99.90;;;;;;5077674;28;21011;-80
2024/01/20 05:02:42;;;;;;;1.33;1.33;;;-2.30;99.90;;;;;;5078231;28;20444;-80
2024/01/20 05:05:09;;;;;;;11.00;1.77;;;-2.30;99.90;;;;;;5077888;28;20986;-80
2024/01/20 05:07:36;;;;;;;1.70;1.40;;;-2.30;99.90;;;;;;5077783;28;20480;-80
2024/01/20 05:10:03;;;;;;;0.97;0.80;;;-2.30;99.90;;;;;;5077899;28;20810;-80
2024/01/20 05:12:29;;;;;;;0.90;0.90;;;-2.30;99.90;;;;;;5078153;28;20467;-80
2024/01/20 05:14:58;;;;;;;2.23;1.07;;;-2.40;99.90;;;;;;5077655;28;20415;-80
2024/01/20 05:17:24;;;;;;;2.10;1.20;;;-2.40;99.90;;;;;;5079665;28;20480;-80
2024/01/20 05:19:51;;;;;;;2.93;1.83;;;-2.40;99.90;;;;;;5079737;28;20465;-80
2024/01/20 05:22:18;;;;;;;2.30;0.90;;;-2.40;99.90;;;;;;5080033;28;20456;-80
2024/01/20 05:24:46;;;;;;;0.40;0.30;;;-2.40;99.90;;;;;;5079774;28;20423;-80
2024/01/20 05:27:13;;;;;;;3.33;1.20;;;-2.50;99.90;;;;;;5079458;28;20498;-80
2024/01/20 05:29:39;;;;;;;0.80;0.80;;;-2.50;99.90;;;;;;5078755;28;20461;-80
2024/01/20 05:32:07;;;;;;;0.43;0.43;;;-2.50;99.90;;;;;;5092985;28;20432;-80
2024/01/20 05:34:33;;;;;;;1.00;0.90;;;-2.50;99.90;;;;;;5097079;28;20202;-80
2024/01/20 05:37:00;;;;;;;0.50;0.50;;;-2.60;99.90;;;;;;5096899;28;20483;-80
2024/01/20 05:39:27;;;;;;;3.80;1.03;;;-2.70;99.90;;;;;;5095835;28;20468;-80
2024/01/20 05:41:54;;;;;;;1.63;1.27;;;-2.80;99.90;;;;;;5096642;28;20527;-80
2024/01/20 05:44:21;;;;;;;5.10;3.00;;;-2.70;99.90;;;;;;5096409;28;20456;-80
2024/01/20 05:46:47;;;;;;;2.30;1.77;;;-2.70;99.90;;;;;;5087285;28;20445;-80
2024/01/20 05:49:15;;;;;;;2.10;2.00;;;-2.70;99.90;;;;;;5082023;28;20465;-80
2024/01/20 05:51:42;;;;;;;4.00;2.23;;;-2.90;99.90;;;;;;5080289;28;20437;-80
2024/01/20 05:54:09;;;;;;;4.13;1.00;;;-3.00;99.90;;;;;;5079589;28;20437;-80
2024/01/20 05:56:36;;;;;;;0.67;0.40;;;-3.00;99.90;;;;;;5078697;28;20476;-80
2024/01/20 05:59:02;;;;;;;1.40;1.37;;;-2.90;99.90;;;;;;5078781;28;20465;-80
2024/01/20 06:01:29;;;;;;;0.90;0.90;;;-2.90;99.90;;;;;;5078364;28;20814;-80
2024/01/20 06:03:56;;;;;;;1.77;1.67;;;-2.80;99.90;;;;;;5078716;28;20420;-80
2024/01/20 06:06:24;;;;;;;4.10;1.20;;;-2.70;99.90;;;;;;5080460;28;20464;-80
2024/01/20 06:08:51;;;;;;;2.83;0.97;;;-2.70;99.90;;;;;;5077501;28;20455;-80
2024/01/20 06:11:17;;;;;;;1.40;1.03;;;-2.60;99.90;;;;;;5077841;28;20415;-80
2024/01/20 06:13:44;;;;;;;17.00;2.27;;;-2.60;99.90;;;;;;5077745;28;20441;-80
2024/01/20 06:16:12;;;;;;;8.57;2.00;;;-2.60;99.90;;;;;;5076961;28;20498;-80
2024/01/20 06:18:39;;;;;;;0.90;0.80;;;-2.60;99.90;;;;;;5076955;28;20571;-80
2024/01/20 06:21:06;;;;;;;0.50;0.50;;;-2.60;99.90;;;;;;5077322;28;20445;-80
2024/01/20 06:23:34;;;;;;;0.57;0.40;;;-2.60;99.90;;;;;;5077158;28;20448;-80
2024/01/20 06:26:00;;;;;;;2.40;2.03;;;-2.70;99.90;;;;;;5077189;28;20448;-80
2024/01/20 06:28:27;;;;;;;1.60;1.50;;;-2.80;99.90;;;;;;5076863;28;20516;-80
2024/01/20 06:30:54;;;;;;;1.13;0.63;;;-2.90;99.90;;;;;;5076663;28;20444;-80
2024/01/20 06:33:21;;;;;;;1.33;1.33;;;-2.90;99.90;;;;;;5077048;28;20444;-80
2024/01/20 06:35:48;;;;;;;2.67;1.67;;;-2.90;99.90;;;;;;5076631;28;20451;-80
2024/01/20 06:38:15;;;;;;;1.43;1.43;;;-2.90;99.90;;;;;;5076469;28;20480;-80
2024/01/20 06:40:43;;;;;;;3.70;1.63;;;-2.80;99.90;;;;;;5076588;28;20455;-80
2024/01/20 06:43:10;;;;;;;2.50;2.07;;;-2.90;99.90;;;;;;5076981;28;20448;-80
2024/01/20 06:45:36;;;;;;;2.47;0.90;;;-2.90;99.90;;;;;;5076255;28;20841;-80
2024/01/20 06:48:04;;;;;;;1.80;1.07;;;-2.90;99.90;;;;;;5076479;28;20437;-80
2024/01/20 06:50:31;;;;;;;4.10;0.97;;;-3.00;99.90;;;;;;5076611;28;20453;-80
2024/01/20 06:52:58;;;;;;;1.33;0.90;;;-2.90;99.90;;;;;;5076690;28;20433;-80
2024/01/20 06:55:25;;;;;;;6.40;0.90;;;-2.90;99.90;;;;;;5076530;28;20949;-80
2024/01/20 06:57:53;;;;;;;13.53;2.33;;;-3.00;99.90;;;;;;5076106;28;21015;-80
2024/01/20 07:00:20;;;;;;;4.63;2.00;;;-3.00;99.90;;;;;;5076283;28;20464;-80
2024/01/20 07:02:47;;;;;;;5.13;2.37;;;-3.00;99.90;;;;;;5076164;28;20445;-80
2024/01/20 07:05:14;;;;;;;1.57;0.80;;;-2.90;99.90;;;;;;5076275;28;20445;-80
2024/01/20 07:07:41;;;;;;;1.60;0.80;;;-2.90;99.90;;;;;;5075843;28;20464;-80
2024/01/20 07:10:09;;;;;;;1.83;1.57;;;-2.90;99.90;;;;;;5076401;28;20514;-80
2024/01/20 07:12:36;;;;;;;1.03;0.83;;;-2.90;99.90;;;;;;5076194;28;20437;-80
2024/01/20 07:15:05;;;;;;;1.90;0.97;;;-2.90;99.90;;;;;;5076470;28;20453;-80
2024/01/20 07:17:32;;;;;;;4.10;0.97;;;-2.80;99.90;;;;;;5076188;28;20854;-80
2024/01/20 07:19:59;;;;;;;1.43;0.80;;;-2.80;99.90;;;;;;5076804;28;20865;-80
2024/01/20 07:22:26;;;;;;;0.83;0.83;;;-2.70;99.90;;;;;;5076157;28;20447;-80
2024/01/20 07:24:54;;;;;;;1.53;0.87;;;-2.80;99.90;;;;;;5076043;28;20445;-80
2024/01/20 07:27:20;;;;;;;8.80;3.50;;;-2.80;99.90;;;;;;5075553;28;20423;-80
2024/01/20 07:29:47;;;;;;;0.90;0.87;;;-2.80;99.90;;;;;;5075999;28;20460;-80
2024/01/20 07:32:15;;;;;;;1.33;1.23;;;-2.90;99.90;;;;;;5077787;28;20417;-80
2024/01/20 07:34:42;;;;;;;1.00;0.57;;;-2.90;99.90;;;;;;5077601;28;20808;-80
2024/01/20 07:37:09;;;;;;;0.73;0.73;;;-2.90;99.90;;;;;;5076843;28;20451;-82
2024/01/20 07:39:35;;;;;;;1.60;1.13;;;-2.90;99.90;;;;;;5077189;28;20990;-80
2024/01/20 07:42:02;;;;;;;2.30;0.77;;;-3.00;99.90;;;;;;5077698;28;20434;-80
2024/01/20 07:44:29;;;;;;;1.53;0.90;;;-3.10;99.90;;;;;;5076475;28;20448;-80
2024/01/20 07:46:56;;;;;;;4.17;1.87;;;-3.10;99.90;;;;;;5076756;28;20465;-80
2024/01/20 07:49:24;;;;;;;2.30;1.50;;;-3.10;99.90;;;;;;5076838;28;20461;-80
2024/01/20 07:51:51;;;;;;;4.67;1.63;;;-3.10;99.90;;;;;;5077308;28;20452;-80
2024/01/20 07:54:18;;;;;;;0.60;0.60;;;-3.10;99.90;;;;;;5076452;28;20441;-80
2024/01/20 07:56:44;;;;;;;1.90;1.80;;;-3.10;99.90;;;;;;5076149;28;20965;-80
2024/01/20 07:59:11;;;;;;;4.30;1.00;;;-3.00;99.90;;;;;;5076428;28;20470;-80
2024/01/20 08:01:38;;;;;;;5.70;1.87;;;-3.20;99.90;;;;;;5076542;28;20456;-80
2024/01/20 08:04:05;;;;;;;0.73;0.73;;;-3.20;99.90;;;;;;5076260;28;20431;-80
2024/01/20 08:06:35;;;;;;;1.83;1.73;;;-3.10;99.90;;;;;;5076209;28;20449;-80
2024/01/20 08:09:03;;;;;;;4.33;1.30;;;-3.00;99.90;;;;;;5075803;28;20492;-80
2024/01/20 08:11:30;;;;;;;1.07;0.67;;;-2.80;99.90;;;;;;5075694;28;20441;-80
2024/01/20 08:13:58;;;;;;;3.33;1.77;;;-2.70;99.90;;;;;;5076248;28;20481;-80
2024/01/20 08:16:28;;;;;;;2.07;1.77;;;-2.60;99.90;;;;;;5077073;28;20448;-80
2024/01/20 08:18:55;;;;;;;2.90;2.80;;;-2.60;99.90;;;;;;5076129;28;20563;-80
2024/01/20 08:21:22;;;;;;;1.93;1.10;;;-2.50;99.90;;;;;;5075737;28;20423;-80
2024/01/20 08:23:50;;;;;;;2.57;2.47;;;-2.50;99.90;;;;;;5074935;28;20460;-80
2024/01/20 08:26:16;;;;;;;1.70;1.57;;;-2.50;99.90;;;;;;5075285;28;20445;-80
2024/01/20 08:28:43;;;;;;;1.93;0.83;;;-2.40;99.90;;;;;;5075492;28;20442;-80
2024/01/20 08:31:10;;;;;;;2.53;2.30;;;-2.40;99.90;;;;;;5075260;28;20425;-80
2024/01/20 08:33:37;;;;;;;6.77;1.50;;;-2.40;99.90;;;;;;5075141;28;20941;-80
2024/01/20 08:36:04;;;;;;;0.80;0.80;;;-2.50;99.90;;;;;;5075305;28;20459;-80
2024/01/20 08:38:30;;;;;;;9.97;2.23;;;-2.40;99.90;;;;;;5077509;28;20488;-80
2024/01/20 08:40:58;;;;;;;1.57;1.47;;;-2.30;99.90;;;;;;5075433;28;20437;-80
2024/01/20 08:43:25;;;;;;;1.70;1.03;;;-2.20;99.90;;;;;;5074669;28;20441;-80
2024/01/20 08:45:52;;;;;;;3.73;1.90;;;-2.20;99.90;;;;;;5074199;28;20449;-80
2024/01/20 08:48:19;;;;;;;3.03;2.00;;;-2.10;99.90;;;;;;5074212;28;20444;-80
2024/01/20 08:50:45;;;;;;;7.40;1.90;;;-1.90;99.90;;;;;;5074441;28;20447;-80
2024/01/20 08:53:12;;;;;;;5.43;1.10;;;-1.80;99.90;;;;;;5074558;28;20491;-80
2024/01/20 08:55:39;;;;;;;1.90;1.80;;;-1.70;99.90;;;;;;5074445;28;20451;-80
2024/01/20 08:58:07;;;;;;;2.30;2.20;;;-1.70;99.90;;;;;;5073986;28;20481;-80
2024/01/20 09:00:33;;;;;;;2.43;0.93;;;-1.70;99.90;;;;;;5074261;28;20449;-80
2024/01/20 09:03:00;;;;;;;1.23;0.67;;;-1.80;99.90;;;;;;5076147;28;20447;-80
2024/01/20 09:05:27;;;;;;;1.57;1.47;;;-1.80;99.90;;;;;;5079278;28;20447;-80
2024/01/20 09:07:54;;;;;;;2.60;2.30;;;-1.80;99.90;;;;;;5078804;28;20472;-80
2024/01/20 09:10:20;;;;;;;1.07;1.07;;;-1.80;99.90;;;;;;5078343;28;20468;-80
2024/01/20 09:12:47;;;;;;;7.90;3.03;;;-1.80;99.90;;;;;;5078024;28;20447;-80
2024/01/20 09:15:15;;;;;;;4.27;1.80;;;-1.90;99.90;;;;;;5078282;28;20447;-80
2024/01/20 09:17:42;;;;;;;2.77;1.20;;;-1.80;99.90;;;;;;5079609;28;20810;-80
2024/01/20 09:20:09;;;;;;;0.93;0.90;;;-1.90;99.90;;;;;;5078570;28;20487;-80
2024/01/20 09:22:36;;;;;;;6.77;2.17;;;-1.90;99.90;;;;;;5079296;28;20436;-80
2024/01/20 09:25:04;;;;;;;2.63;0.90;;;-1.70;99.90;;;;;;5078454;28;20445;-80
2024/01/20 09:27:31;;;;;;;3.20;1.73;;;-1.70;99.90;;;;;;5078384;28;20484;-80
2024/01/20 09:29:57;;;;;;;1.40;1.30;;;-1.60;99.90;;;;;;5078332;28;20475;-80
2024/01/20 09:32:26;;;;;;;2.10;1.50;;;-1.60;99.90;;;;;;5078030;28;20445;-80
2024/01/20 09:34:52;;;;;;;2.97;2.60;;;-1.60;99.90;;;;;;5078668;28;20491;-79
2024/01/20 09:37:19;;;;;;;2.53;2.03;;;-1.40;99.90;;;;;;5078616;28;20812;-81
2024/01/20 09:39:46;;;;;;;2.10;1.53;;;-1.20;99.90;;;;;;5079086;28;20872;-80
2024/01/20 09:42:15;;;;;;;2.10;1.20;;;-1.10;99.90;;;;;;5080404;28;20870;-80
2024/01/20 09:44:42;;;;;;;0.87;0.87;;;-0.90;99.90;;;;;;5079879;28;20814;-80
2024/01/20 09:47:11;;;;;;;4.10;1.43;;;-1.10;99.90;;;;;;5080188;28;20433;-80
2024/01/20 09:49:39;;;;;;;11.60;3.20;;;-1.20;99.90;;;;;;5080872;28;20457;-80
2024/01/20 09:52:10;;;;;;;10.50;1.43;;;-1.30;99.90;;;;;;5079909;28;20447;-81
2024/01/20 09:54:43;;;;;;;2.30;1.03;;;-1.30;99.90;;;;;;5079558;28;20455;-80
2024/01/20 09:57:11;;;;;;;6.87;2.60;;;-1.30;99.90;;;;;;5079836;28;20404;-80
2024/01/20 09:59:40;;;;;;;1.73;1.60;;;-1.20;99.90;;;;;;5078555;28;20861;-80
2024/01/20 10:02:07;;;;;;;5.30;3.10;;;-1.00;99.90;;;;;;5078771;28;20453;-80
2024/01/20 10:04:35;;;;;;;5.40;1.40;;;-0.90;99.90;;;;;;5079500;28;20424;-80
2024/01/20 10:07:04;;;;;;;1.40;0.80;;;-0.70;99.90;;;;;;5078741;28;20448;-80
2024/01/20 10:09:31;;;;;;;2.50;1.97;;;-0.20;99.90;;;;;;5078997;28;20477;-81
2024/01/20 10:11:58;;;;;;;1.97;1.57;;;0.70;99.90;;;;;;5078264;28;20437;-80
2024/01/20 10:14:25;;;;;;;1.77;1.53;;;1.20;99.90;;;;;;5078607;28;20963;-80
2024/01/20 10:16:52;;;;;;;2.30;2.10;;;1.50;99.90;;;;;;5078547;28;20459;-80
2024/01/20 10:19:19;;;;;;;2.63;1.47;;;2.40;99.90;;;;;;5078068;28;20484;-80
2024/01/20 10:21:49;;;;;;;10.43;2.10;;;3.10;99.90;;;;;;5079661;28;20445;-81
2024/01/20 10:24:23;;;;;;;5.90;2.80;;;3.10;99.90;;;;;;5080253;28;20448;-80
2024/01/20 10:26:52;;;;;;;2.47;1.33;;;2.90;99.90;;;;;;5078358;28;20432;-80
2024/01/20 10:29:18;;;;;;;6.83;2.20;;;2.70;99.90;;;;;;5077814;28;20478;-79
2024/01/20 10:31:45;;;;;;;2.20;1.23;;;2.40;99.90;;;;;;5077299;28;20445;-80
2024/01/20 10:34:12;;;;;;;2.70;2.23;;;1.70;99.90;;;;;;5076801;28;20456;-81
2024/01/20 10:36:43;;;;;;;6.17;2.13;;;1.40;99.90;;;;;;5076773;28;20425;-80
2024/01/20 10:39:14;;;;;;;1.33;1.23;;;1.20;99.90;;;;;;5076991;28;20491;-80
2024/01/20 10:41:45;;;;;;;4.37;1.47;;;0.90;99.90;;;;;;5076875;28;20465;-80
2024/01/20 10:44:16;;;;;;;12.67;2.20;;;0.60;99.90;;;;;;5076746;28;20520;-80
2024/01/20 10:46:47;;;;;;;1.37;1.37;;;0.50;99.90;;;;;;5076747;28;20429;-80
2024/01/20 10:49:18;;;;;;;7.40;1.97;;;0.30;99.90;;;;;;5076506;28;20460;-80
2024/01/20 10:51:46;;;;;;;1.83;1.23;;;0.30;99.90;;;;;;5077249;28;20426;-79
2024/01/20 10:54:14;;;;;;;2.23;2.13;;;0.40;99.90;;;;;;5076765;28;20452;-79
2024/01/20 10:56:42;;;;;;;2.20;1.67;;;0.40;99.90;;;;;;5077707;28;20813;-79
2024/01/20 10:59:12;;;;;;;4.40;2.67;;;0.60;99.90;;;;;;5076724;28;20485;-79
2024/01/20 11:01:40;;;;;;;3.37;1.33;;;0.70;99.90;;;;;;5077431;28;20794;-80
2024/01/20 11:04:08;;;;;;;1.93;1.67;;;0.70;99.90;;;;;;5076641;28;20972;-80
2024/01/20 11:06:36;;;;;;;4.20;1.53;;;0.60;99.90;;;;;;5076390;28;20452;-80
2024/01/20 11:09:04;;;;;;;2.17;2.00;;;0.50;99.90;;;;;;5078904;28;20492;-80
2024/01/20 11:11:34;;;;;;;1.17;1.03;;;0.30;99.90;;;;;;5090506;28;20457;-80
2024/01/20 11:14:03;;;;;;;1.20;1.10;;;0.30;99.90;;;;;;5075922;28;20433;-79
2024/01/20 11:16:33;;;;;;;1.80;1.37;;;0.20;99.90;;;;;;5076139;28;20452;-79
2024/01/20 11:19:11;;;;;;;4.73;4.23;;;0.10;99.90;;;;;;5076233;28;20481;-79
2024/01/20 11:21:38;;;;;;;2.63;1.27;;;0.00;99.90;;;;;;5075496;28;20441;-79
2024/01/20 11:24:06;;;;;;;9.63;1.60;;;-0.10;99.90;;;;;;5075583;28;20511;-79
2024/01/20 11:26:33;;;;;;;3.57;2.30;;;-0.10;99.90;;;;;;5074730;28;20860;-79
2024/01/20 11:29:03;;;;;;;4.97;2.23;;;-0.10;99.90;;;;;;5074629;28;21039;-79
2024/01/20 11:31:31;;;;;;;1.47;1.37;;;-0.10;99.90;;;;;;5075060;28;20451;-79
2024/01/20 11:33:59;;;;;;;2.97;1.40;;;0.10;99.90;;;;;;5075063;28;20441;-79
2024/01/20 11:36:28;;;;;;;1.27;1.17;;;0.10;99.90;;;;;;5075262;28;20506;-79
2024/01/20 11:38:56;;;;;;;2.57;1.30;;;0.20;99.90;;;;;;5075004;28;20511;-79
2024/01/20 11:41:23;;;;;;;3.20;1.60;;;0.30;99.90;;;;;;5075053;28;20452;-79
2024/01/20 11:43:50;;;;;;;3.83;1.30;;;0.30;99.90;;;;;;5075517;28;20444;-82
2024/01/20 11:46:18;;;;;;;2.23;1.27;;;0.30;99.90;;;;;;5079615;28;20448;-80
2024/01/20 11:48:47;;;;;;;4.10;1.60;;;0.20;99.90;;;;;;5076338;28;20469;-81
2024/01/20 11:51:14;;;;;;;4.67;2.30;;;0.30;99.90;;;;;;5075960;28;20992;-80
2024/01/20 11:53:41;;;;;;;8.80;2.90;;;0.30;99.90;;;;;;5076414;28;20443;-80
2024/01/20 11:56:08;;;;;;;1.23;0.90;;;0.30;99.90;;;;;;5075489;28;20456;-80
2024/01/20 11:58:34;;;;;;;0.60;0.60;;;0.30;99.90;;;;;;5078248;28;20492;-80
2024/01/20 12:01:02;;;;;;;2.60;2.27;;;0.30;99.90;;;;;;5077008;28;20958;-80
2024/01/20 12:03:31;;;;;;;11.07;1.63;;;0.20;99.90;;;;;;5076828;28;20459;-80
2024/01/20 12:06:05;;;;;;;3.77;1.27;;;0.10;99.90;;;;;;5077053;28;20493;-80
2024/01/20 12:08:31;;;;;;;5.37;0.93;;;0.00;99.90;;;;;;5077579;28;20485;-80
2024/01/20 12:10:58;;;;;;;3.90;1.00;;;-0.10;99.90;;;;;;5077769;28;20437;-80
2024/01/20 12:13:26;;;;;;;2.57;1.70;;;-0.10;99.90;;;;;;5079409;28;20414;-81
2024/01/20 12:15:53;;;;;;;5.97;3.23;;;-0.20;99.90;;;;;;5075710;28;20434;-80
2024/01/20 12:18:20;;;;;;;5.80;2.67;;;-0.20;99.90;;;;;;5075839;28;20440;-80
2024/01/20 12:20:48;;;;;;;1.27;0.87;;;-0.20;99.90;;;;;;5075246;28;21023;-80
2024/01/20 12:23:18;;;;;;;5.20;1.80;;;-0.20;99.90;;;;;;5075006;28;20445;-80
2024/01/20 12:25:45;;;;;;;3.47;1.23;;;-0.20;99.90;;;;;;5074983;28;20479;-80
2024/01/20 12:28:12;;;;;;;1.67;0.80;;;-0.30;99.90;;;;;;5075053;28;20448;-80
2024/01/20 12:30:39;;;;;;;10.23;2.53;;;-0.40;99.90;;;;;;5075274;28;20437;-81
2024/01/20 12:33:05;;;;;;;2.93;1.17;;;-0.40;99.90;;;;;;5075484;28;20445;-80
2024/01/20 12:35:33;;;;;;;1.13;1.07;;;-0.30;99.90;;;;;;5074608;28;20945;-81
2024/01/20 12:38:01;;;;;;;0.83;0.50;;;-0.30;99.90;;;;;;5076861;28;20425;-81
2024/01/20 12:40:29;;;;;;;1.33;0.67;;;-0.30;99.90;;;;;;5078582;28;20519;-81
2024/01/20 12:42:56;;;;;;;1.33;1.00;;;-0.30;99.90;;;;;;5078578;28;20502;-81
2024/01/20 12:45:23;;;;;;;6.10;1.80;;;-0.30;99.90;;;;;;5078651;28;20856;-81
2024/01/20 12:47:50;;;;;;;1.27;1.10;;;-0.20;99.90;;;;;;5078366;28;20433;-80